createdAt,value
2018-04-12T00:00:06.503Z,0.00
2018-04-12T00:01:06.544Z,0.00
2018-04-12T00:02:06.534Z,0.00
2018-04-12T00:03:06.517Z,0.00
2018-04-12T00:04:06.516Z,0.00
2018-04-12T00:05:06.540Z,0.00
2018-04-12T00:06:06.538Z,0.00
2018-04-12T00:07:06.463Z,0.00
2018-04-12T00:08:06.561Z,0.00
2018-04-12T00:09:06.463Z,0.00
2018-04-12T00:10:06.460Z,0.00
2018-04-12T00:11:06.501Z,0.00
2018-04-12T00:12:06.549Z,0.00
2018-04-12T00:13:06.458Z,0.00
2018-04-12T00:14:06.477Z,0.00
2018-04-12T00:15:06.475Z,0.00
2018-04-12T00:16:06.451Z,0.00
2018-04-12T00:17:06.482Z,0.00
2018-04-12T00:18:06.491Z,0.00
2018-04-12T00:19:06.453Z,0.00
2018-04-12T00:20:06.448Z,0.00
2018-04-12T00:21:06.445Z,0.00
2018-04-12T00:22:06.448Z,0.00
2018-04-12T00:23:06.445Z,0.00
2018-04-12T00:24:06.466Z,0.00
2018-04-12T00:25:06.443Z,0.00
2018-04-12T00:26:06.438Z,0.00
2018-04-12T00:27:06.462Z,0.00
2018-04-12T00:28:06.474Z,0.00
2018-04-12T00:29:06.437Z,0.00
2018-04-12T00:30:06.439Z,0.00
2018-04-12T00:31:06.442Z,0.00
2018-04-12T00:32:06.441Z,0.00
2018-04-12T00:33:06.494Z,0.00
2018-04-12T00:34:06.508Z,0.00
2018-04-12T00:35:06.578Z,0.00
2018-04-12T00:36:06.431Z,0.00
2018-04-12T00:37:06.451Z,0.00
2018-04-12T00:38:06.498Z,0.00
2018-04-12T00:39:06.425Z,0.00
2018-04-12T00:40:06.457Z,0.00
2018-04-12T00:41:06.509Z,0.00
2018-04-12T00:42:06.421Z,0.00
2018-04-12T00:43:06.419Z,0.00
2018-04-12T00:44:06.471Z,0.00
2018-04-12T00:45:06.465Z,0.00
2018-04-12T00:46:06.452Z,0.00
2018-04-12T00:47:06.421Z,0.00
2018-04-12T00:48:06.418Z,0.00
2018-04-12T00:49:06.415Z,0.00
2018-04-12T00:50:06.463Z,0.00
2018-04-12T00:51:06.425Z,0.00
2018-04-12T00:52:06.418Z,0.00
2018-04-12T00:53:06.406Z,0.00
2018-04-12T00:54:06.405Z,0.00
2018-04-12T00:55:06.468Z,0.00
2018-04-12T00:56:06.405Z,0.00
2018-04-12T00:57:06.416Z,0.00
2018-04-12T00:58:06.426Z,0.00
2018-04-12T00:59:06.399Z,0.00
2018-04-12T01:00:06.406Z,0.00
2018-04-12T01:01:06.413Z,0.00
2018-04-12T01:02:06.438Z,0.00
2018-04-12T01:03:06.396Z,0.00
2018-04-12T01:04:06.407Z,0.00
2018-04-12T01:05:06.393Z,0.00
2018-04-12T01:06:06.395Z,0.00
2018-04-12T01:07:06.390Z,0.00
2018-04-12T01:08:06.394Z,0.00
2018-04-12T01:53:59.438Z,0.00
2018-04-12T01:54:40.852Z,0.00
2018-04-12T01:55:40.843Z,0.00
2018-04-12T01:56:40.853Z,0.00
2018-04-12T01:57:40.833Z,0.00
2018-04-12T01:58:40.825Z,0.00
2018-04-12T01:59:40.841Z,0.00
2018-04-12T02:00:40.922Z,0.00
2018-04-12T02:01:40.845Z,0.00
2018-04-12T02:02:40.814Z,0.00
2018-04-12T02:03:40.810Z,0.00
2018-04-12T02:04:40.872Z,0.00
2018-04-12T02:05:40.841Z,0.00
2018-04-12T02:06:40.811Z,0.00
2018-04-12T02:07:40.803Z,0.00
2018-04-12T02:08:40.842Z,0.00
2018-04-12T02:09:40.802Z,0.00
2018-04-12T02:10:40.797Z,0.00
2018-04-12T02:11:40.802Z,0.00
2018-04-12T02:12:40.793Z,0.00
2018-04-12T02:13:40.796Z,0.00
2018-04-12T02:14:40.810Z,0.00
2018-04-12T02:15:40.786Z,0.00
2018-04-12T02:16:40.784Z,0.00
2018-04-12T02:17:40.820Z,0.00
2018-04-12T02:18:40.780Z,0.00
2018-04-12T02:19:40.780Z,0.00
2018-04-12T02:20:40.777Z,0.00
2018-04-12T02:21:40.777Z,0.00
2018-04-12T02:22:40.777Z,0.00
2018-04-12T02:23:40.781Z,0.00
2018-04-12T02:24:40.785Z,0.00
2018-04-12T02:25:40.770Z,0.00
2018-04-12T02:26:40.768Z,0.00
2018-04-12T02:27:40.790Z,0.00
2018-04-12T02:28:40.832Z,0.00
2018-04-12T02:29:40.762Z,0.00
2018-04-12T02:30:40.794Z,0.00
2018-04-12T02:31:40.752Z,0.00
2018-04-12T02:32:40.803Z,0.00
2018-04-12T02:33:40.768Z,0.00
2018-04-12T02:34:40.796Z,0.00
2018-04-12T02:35:40.772Z,0.00
2018-04-12T02:36:40.789Z,0.00
2018-04-12T02:37:40.781Z,0.00
2018-04-12T02:38:40.768Z,0.00
2018-04-12T02:39:40.733Z,0.00
2018-04-12T02:40:40.792Z,0.00
2018-04-12T02:41:40.729Z,0.00
2018-04-12T02:42:40.793Z,0.00
2018-04-12T02:43:40.726Z,0.00
2018-04-12T02:44:40.787Z,0.00
2018-04-12T02:45:40.749Z,0.00
2018-04-12T02:46:40.733Z,0.00
2018-04-12T02:47:40.714Z,0.00
2018-04-12T02:48:40.733Z,0.00
2018-04-12T02:49:40.779Z,0.00
2018-04-12T02:50:40.767Z,0.00
2018-04-12T02:51:40.704Z,0.00
2018-04-12T02:52:40.747Z,0.00
2018-04-12T02:53:47.766Z,0.00
2018-04-12T02:54:40.700Z,0.00
2018-04-12T02:55:40.695Z,0.00
2018-04-12T02:57:08.376Z,0.00
2018-04-12T02:57:40.693Z,0.00
2018-04-12T02:58:40.686Z,0.00
2018-04-12T02:59:49.580Z,0.00
2018-04-12T03:00:40.725Z,0.00
2018-04-12T03:01:40.730Z,0.00
2018-04-12T03:02:40.682Z,0.00
2018-04-12T03:22:17.446Z,0.00
2018-04-12T03:23:17.405Z,0.00
2018-04-12T03:24:17.392Z,0.00
2018-04-12T03:25:17.401Z,0.00
2018-04-12T03:26:17.385Z,0.00
2018-04-12T03:27:17.364Z,0.00
2018-04-12T03:28:17.360Z,0.00
2018-04-12T03:29:17.366Z,0.00
2018-04-12T03:30:17.350Z,0.00
2018-04-12T03:31:17.343Z,0.00
2018-04-12T03:32:17.340Z,0.00
2018-04-12T03:33:17.346Z,0.00
2018-04-12T03:34:17.333Z,0.00
2018-04-12T03:35:17.327Z,0.00
2018-04-12T03:36:17.328Z,0.00
2018-04-12T03:37:17.350Z,0.00
2018-04-12T03:38:17.323Z,0.00
2018-04-12T03:39:17.318Z,0.00
2018-04-12T03:40:17.311Z,0.00
2018-04-12T03:41:17.325Z,0.00
2018-04-12T03:42:17.305Z,0.00
2018-04-12T03:43:17.305Z,0.00
2018-04-12T03:44:17.306Z,0.00
2018-04-12T03:45:17.302Z,0.00
2018-04-12T03:46:17.337Z,0.00
2018-04-12T03:47:17.310Z,0.00
2018-04-12T03:48:17.290Z,0.00
2018-04-12T03:49:17.301Z,0.00
2018-04-12T03:50:17.344Z,0.00
2018-04-12T03:51:17.287Z,0.00
2018-04-12T03:52:17.291Z,0.00
2018-04-12T03:53:17.276Z,0.00
2018-04-12T03:54:17.269Z,0.00
2018-04-12T03:55:17.261Z,0.00
2018-04-12T03:56:17.265Z,0.00
2018-04-12T03:57:17.260Z,0.00
2018-04-12T03:58:17.275Z,0.00
2018-04-12T03:59:17.328Z,0.00
2018-04-12T04:00:17.254Z,0.00
2018-04-12T04:01:17.255Z,0.00
2018-04-12T04:02:17.245Z,0.00
2018-04-12T04:03:17.243Z,0.00
2018-04-12T04:04:17.252Z,0.00
2018-04-12T04:05:17.236Z,0.00
2018-04-12T04:06:17.237Z,0.00
2018-04-12T04:07:17.253Z,0.00
2018-04-12T04:08:17.232Z,0.00
2018-04-12T04:09:17.234Z,0.00
2018-04-12T04:10:17.227Z,0.00
2018-04-12T04:11:17.219Z,0.00
2018-04-12T04:12:17.230Z,0.00
2018-04-12T04:13:17.217Z,0.00
2018-04-12T04:14:17.214Z,0.00
2018-04-12T04:15:17.245Z,0.00
2018-04-12T04:16:17.208Z,0.00
2018-04-12T04:17:17.210Z,0.00
2018-04-12T04:18:17.203Z,0.00
2018-04-12T04:19:17.252Z,0.00
2018-04-12T04:20:17.252Z,4.00
2018-04-12T04:21:17.199Z,0.00
2018-04-12T04:22:17.205Z,0.00
2018-04-12T04:23:17.206Z,4.00
2018-04-12T04:24:17.192Z,4.00
2018-04-12T04:25:17.222Z,4.00
2018-04-12T04:26:17.228Z,4.00
2018-04-12T04:27:17.184Z,4.00
2018-04-12T04:28:17.175Z,8.00
2018-04-12T04:29:17.205Z,8.00
2018-04-12T04:30:17.186Z,8.00
2018-04-12T04:31:17.166Z,12.00
2018-04-12T04:32:19.090Z,12.00
2018-04-12T04:33:17.165Z,16.00
2018-04-12T04:34:17.159Z,16.00
2018-04-12T04:35:17.161Z,16.00
2018-04-12T04:36:17.166Z,20.00
2018-04-12T04:37:17.154Z,24.00
2018-04-12T04:38:17.145Z,24.00
2018-04-12T04:39:17.187Z,28.00
2018-04-12T04:40:17.192Z,32.00
2018-04-12T04:41:17.165Z,32.00
2018-04-12T04:42:17.137Z,40.00
2018-04-12T04:43:17.164Z,44.00
2018-04-12T04:44:17.143Z,48.00
2018-04-12T04:45:17.131Z,56.00
2018-04-12T04:46:17.142Z,64.00
2018-04-12T04:47:17.137Z,68.00
2018-04-12T04:48:17.158Z,76.00
2018-04-12T04:49:17.141Z,88.00
2018-04-12T04:50:17.153Z,92.00
2018-04-12T04:51:17.156Z,104.00
2018-04-12T04:52:17.111Z,116.00
2018-04-12T04:53:17.098Z,116.00
2018-04-12T04:54:17.099Z,132.00
2018-04-12T04:55:17.125Z,140.00
2018-04-12T04:56:17.119Z,152.00
2018-04-12T04:57:17.110Z,164.00
2018-04-12T04:58:17.090Z,180.00
2018-04-12T04:59:17.117Z,196.00
2018-04-12T05:00:17.085Z,208.00
2018-04-12T05:01:17.136Z,224.00
2018-04-12T05:02:17.081Z,248.00
2018-04-12T05:03:17.096Z,288.00
2018-04-12T05:04:17.072Z,308.00
2018-04-12T05:05:17.076Z,304.00
2018-04-12T05:06:17.117Z,296.00
2018-04-12T05:07:17.116Z,316.00
2018-04-12T05:08:17.098Z,344.00
2018-04-12T05:09:17.060Z,372.00
2018-04-12T05:10:17.060Z,396.00
2018-04-12T05:11:17.162Z,432.00
2018-04-12T05:12:17.047Z,484.00
2018-04-12T05:13:17.051Z,572.00
2018-04-12T05:14:17.051Z,684.00
2018-04-12T05:15:17.035Z,1040.00
2018-04-12T05:16:17.054Z,1404.00
2018-04-12T05:17:17.058Z,2048.00
2018-04-12T05:18:17.093Z,1908.00
2018-04-12T05:19:17.026Z,1496.00
2018-04-12T05:20:17.059Z,1824.00
2018-04-12T05:21:17.022Z,2892.00
2018-04-12T05:22:17.025Z,7584.00
2018-04-12T05:23:17.035Z,12320.00
2018-04-12T05:24:17.045Z,14304.00
2018-04-12T05:25:17.012Z,12832.00
2018-04-12T05:26:17.011Z,12000.00
2018-04-12T05:27:17.009Z,12544.00
2018-04-12T05:28:17.004Z,8300.00
2018-04-12T05:29:17.012Z,2464.00
2018-04-12T05:30:17.031Z,1436.00
2018-04-12T05:31:17.036Z,1244.00
2018-04-12T05:32:17.012Z,1432.00
2018-04-12T05:33:17.056Z,1668.00
2018-04-12T05:34:17.020Z,2520.00
2018-04-12T05:35:16.991Z,2448.00
2018-04-12T05:36:17.023Z,2292.00
2018-04-12T05:37:17.023Z,3008.00
2018-04-12T05:38:17.005Z,4108.00
2018-04-12T05:39:16.994Z,9032.00
2018-04-12T05:40:17.008Z,15456.00
2018-04-12T05:41:17.068Z,17920.00
2018-04-12T05:42:17.016Z,20672.00
2018-04-12T05:43:16.995Z,25088.00
2018-04-12T05:44:17.025Z,31104.00
2018-04-12T05:45:16.979Z,38144.00
2018-04-12T05:46:17.011Z,37408.00
2018-04-12T05:47:17.014Z,30720.00
2018-04-12T05:48:16.981Z,24928.00
2018-04-12T05:49:16.993Z,24736.00
2018-04-12T05:50:17.010Z,30464.00
2018-04-12T05:51:16.986Z,31648.00
2018-04-12T05:52:16.985Z,30304.00
2018-04-12T05:53:17.015Z,33216.00
2018-04-12T05:54:17.001Z,30784.00
2018-04-12T05:55:17.019Z,25344.00
2018-04-12T05:56:17.030Z,23872.00
2018-04-12T05:57:17.003Z,19968.00
2018-04-12T05:58:17.040Z,16064.00
2018-04-12T05:59:17.034Z,13896.00
2018-04-12T06:00:17.002Z,14112.00
2018-04-12T06:01:17.038Z,7964.00
2018-04-12T06:02:17.015Z,5144.00
2018-04-12T06:03:17.009Z,4668.00
2018-04-12T06:04:17.056Z,4284.00
2018-04-12T06:05:17.066Z,4000.00
2018-04-12T06:06:17.014Z,3932.00
2018-04-12T06:07:17.012Z,3892.00
2018-04-12T06:08:17.057Z,3684.00
2018-04-12T06:09:17.047Z,3704.00
2018-04-12T06:10:17.025Z,3508.00
2018-04-12T06:11:17.107Z,3300.00
2018-04-12T06:12:17.062Z,3208.00
2018-04-12T06:13:17.056Z,3136.00
2018-04-12T06:14:17.063Z,3068.00
2018-04-12T06:15:17.032Z,2932.00
2018-04-12T06:16:17.074Z,2872.00
2018-04-12T06:17:17.031Z,2708.00
2018-04-12T06:18:17.084Z,2592.00
2018-04-12T06:19:17.047Z,2468.00
2018-04-12T06:20:17.065Z,2480.00
2018-04-12T06:21:17.135Z,2484.00
2018-04-12T06:22:17.078Z,2504.00
2018-04-12T06:23:17.098Z,2400.00
2018-04-12T06:24:17.023Z,2304.00
2018-04-12T06:25:17.030Z,2276.00
2018-04-12T06:26:17.019Z,2192.00
2018-04-12T06:27:17.022Z,2032.00
2018-04-12T06:28:17.018Z,2096.00
2018-04-12T06:29:17.017Z,2124.00
2018-04-12T06:30:17.025Z,2168.00
2018-04-12T06:31:17.070Z,2196.00
2018-04-12T06:32:17.057Z,2236.00
2018-04-12T06:33:17.029Z,2368.00
2018-04-12T06:34:17.038Z,2480.00
2018-04-12T06:35:17.010Z,2608.00
2018-04-12T06:36:17.005Z,2756.00
2018-04-12T06:37:17.022Z,2964.00
2018-04-12T06:39:38.096Z,3100.00
2018-04-12T06:40:38.046Z,2916.00
2018-04-12T06:41:38.052Z,2712.00
2018-04-12T06:42:38.040Z,2576.00
2018-04-12T06:43:38.040Z,2484.00
2018-04-12T06:44:38.058Z,2388.00
2018-04-12T06:45:38.033Z,2296.00
2018-04-12T06:46:38.064Z,2276.00
2018-04-12T06:47:38.029Z,2208.00
2018-04-12T06:48:38.029Z,2200.00
2018-04-12T06:49:38.025Z,2252.00
2018-04-12T06:50:38.026Z,2248.00
2018-04-12T06:51:38.030Z,2288.00
2018-04-12T06:52:38.027Z,2460.00
2018-04-12T06:53:38.037Z,2552.00
2018-04-12T06:54:38.022Z,2448.00
2018-04-12T06:55:38.022Z,2356.00
2018-04-12T06:56:38.017Z,2236.00
2018-04-12T06:57:38.015Z,2136.00
2018-04-12T06:58:38.010Z,2212.00
2018-04-12T06:59:38.007Z,2324.00
2018-04-12T07:00:38.014Z,2148.00
2018-04-12T07:01:38.014Z,2128.00
2018-04-12T07:02:38.003Z,2288.00
2018-04-12T07:03:38.021Z,2340.00
2018-04-12T07:04:38.015Z,2316.00
2018-04-12T07:05:38.003Z,2288.00
2018-04-12T07:06:38.027Z,2244.00
2018-04-12T07:07:38.001Z,2344.00
2018-04-12T07:08:37.996Z,2292.00
2018-04-12T07:09:37.996Z,2404.00
2018-04-12T07:10:37.989Z,2384.00
2018-04-12T07:11:37.989Z,2364.00
2018-04-12T07:12:37.989Z,2352.00
2018-04-12T07:13:38.008Z,2496.00
2018-04-12T07:14:37.987Z,2476.00
2018-04-12T07:15:38.016Z,2484.00
2018-04-12T07:16:37.984Z,2492.00
2018-04-12T07:17:37.977Z,2448.00
2018-04-12T07:18:38.000Z,2548.00
2018-04-12T07:19:37.978Z,2564.00
2018-04-12T07:20:37.980Z,2496.00
2018-04-12T07:21:37.975Z,2572.00
2018-04-12T07:22:37.985Z,2480.00
2018-04-12T07:23:38.278Z,2472.00
2018-04-12T07:24:37.970Z,2408.00
2018-04-12T07:25:37.968Z,2388.00
2018-04-12T07:26:37.973Z,2396.00
2018-04-12T07:27:37.962Z,2288.00
2018-04-12T07:28:37.977Z,2280.00
2018-04-12T07:29:37.961Z,2148.00
2018-04-12T07:30:38.006Z,2008.00
2018-04-12T07:31:37.961Z,1992.00
2018-04-12T07:32:37.965Z,1892.00
2018-04-12T07:33:37.957Z,1756.00
2018-04-12T07:34:37.955Z,1880.00
2018-04-12T07:35:37.952Z,2064.00
2018-04-12T07:36:37.968Z,2024.00
2018-04-12T07:37:37.962Z,2112.00
2018-04-12T07:38:37.949Z,2096.00
2018-04-12T07:39:37.959Z,1796.00
2018-04-12T07:40:37.951Z,1852.00
2018-04-12T07:41:37.947Z,1772.00
2018-04-12T07:42:37.951Z,1704.00
2018-04-12T07:43:38.010Z,1688.00
2018-04-12T07:44:37.951Z,1712.00
2018-04-12T07:45:37.948Z,1672.00
2018-04-12T07:46:37.946Z,1552.00
2018-04-12T07:47:37.940Z,1616.00
2018-04-12T07:48:37.940Z,1748.00
2018-04-12T07:49:37.954Z,1768.00
2018-04-12T07:50:37.957Z,1808.00
2018-04-12T07:51:37.940Z,1808.00
2018-04-12T07:52:37.946Z,1772.00
2018-04-12T07:53:37.943Z,1672.00
2018-04-12T07:54:37.975Z,1668.00
2018-04-12T07:55:37.929Z,1576.00
2018-04-12T07:56:37.953Z,1484.00
2018-04-12T07:57:37.926Z,1480.00
2018-04-12T07:58:37.933Z,1404.00
2018-04-12T07:59:37.928Z,1416.00
2018-04-12T08:00:37.926Z,1392.00
2018-04-12T08:01:37.927Z,1412.00
2018-04-12T08:02:37.970Z,1424.00
2018-04-12T08:03:37.947Z,1480.00
2018-04-12T08:04:37.932Z,1484.00
2018-04-12T08:05:37.936Z,1496.00
2018-04-12T08:06:37.926Z,1512.00
2018-04-12T08:07:37.922Z,1516.00
2018-04-12T08:08:37.920Z,1520.00
2018-04-12T08:09:37.925Z,1592.00
2018-04-12T08:10:37.941Z,1556.00
2018-04-12T08:11:37.920Z,1580.00
2018-04-12T08:12:37.942Z,1612.00
2018-04-12T08:13:37.932Z,1632.00
2018-04-12T08:14:37.915Z,1740.00
2018-04-12T08:15:37.922Z,1856.00
2018-04-12T08:16:37.945Z,1928.00
2018-04-12T08:17:37.922Z,2004.00
2018-04-12T08:18:37.973Z,2040.00
2018-04-12T08:19:37.941Z,2044.00
2018-04-12T08:20:37.935Z,2016.00
2018-04-12T08:21:37.919Z,1976.00
2018-04-12T08:22:37.927Z,1864.00
2018-04-12T08:23:37.920Z,1800.00
2018-04-12T08:24:37.918Z,1812.00
2018-04-12T08:25:37.940Z,1824.00
2018-04-12T08:26:37.942Z,1916.00
2018-04-12T08:27:37.916Z,2020.00
2018-04-12T08:28:37.922Z,2044.00
2018-04-12T08:29:37.931Z,1976.00
2018-04-12T08:30:37.914Z,1924.00
2018-04-12T08:31:37.938Z,1896.00
2018-04-12T08:32:37.923Z,1912.00
2018-04-12T08:33:37.925Z,1948.00
2018-04-12T08:34:37.962Z,1892.00
2018-04-12T08:35:37.926Z,1896.00
2018-04-12T08:36:37.918Z,1896.00
2018-04-12T08:37:37.922Z,1912.00
2018-04-12T08:38:37.928Z,1976.00
2018-04-12T08:39:37.932Z,2020.00
2018-04-12T08:40:37.932Z,2052.00
2018-04-12T08:41:37.939Z,2084.00
2018-04-12T08:42:37.958Z,2152.00
2018-04-12T08:43:37.969Z,2188.00
2018-04-12T08:44:38.001Z,2228.00
2018-04-12T08:45:37.962Z,2284.00
2018-04-12T08:46:37.929Z,2324.00
2018-04-12T08:47:37.975Z,2340.00
2018-04-12T08:48:38.005Z,2344.00
2018-04-12T08:49:37.941Z,2400.00
2018-04-12T08:50:37.936Z,2408.00
2018-04-12T08:51:37.933Z,2416.00
2018-04-12T08:52:37.927Z,2404.00
2018-04-12T08:53:37.932Z,2388.00
2018-04-12T08:54:37.934Z,2348.00
2018-04-12T08:55:37.937Z,2324.00
2018-04-12T08:56:37.934Z,2332.00
2018-04-12T08:57:37.944Z,2332.00
2018-04-12T08:58:37.943Z,2356.00
2018-04-12T08:59:37.962Z,2340.00
2018-04-12T09:00:37.969Z,2348.00
2018-04-12T09:01:37.956Z,2324.00
2018-04-12T09:02:37.938Z,2320.00
2018-04-12T09:03:37.939Z,2292.00
2018-04-12T09:04:37.952Z,2280.00
2018-04-12T09:05:37.945Z,2256.00
2018-04-12T09:06:37.943Z,2224.00
2018-04-12T09:07:37.963Z,2212.00
2018-04-12T09:08:37.955Z,2200.00
2018-04-12T09:09:37.945Z,2156.00
2018-04-12T09:10:37.948Z,2104.00
2018-04-12T09:11:37.947Z,2044.00
2018-04-12T09:12:37.967Z,2000.00
2018-04-12T09:13:37.953Z,1952.00
2018-04-12T09:14:37.958Z,1900.00
2018-04-12T09:15:37.959Z,1868.00
2018-04-12T09:16:37.966Z,1812.00
2018-04-12T09:17:38.040Z,1768.00
2018-04-12T09:18:37.954Z,1724.00
2018-04-12T09:19:37.958Z,1668.00
2018-04-12T09:20:38.006Z,1624.00
2018-04-12T09:21:37.968Z,1584.00
2018-04-12T09:22:37.994Z,1552.00
2018-04-12T09:23:37.969Z,1524.00
2018-04-12T09:24:37.968Z,1500.00
2018-04-12T09:25:37.971Z,1476.00
2018-04-12T09:26:37.982Z,1452.00
2018-04-12T09:27:37.969Z,1440.00
2018-04-12T09:28:37.972Z,1424.00
2018-04-12T09:29:37.972Z,1420.00
2018-04-12T09:30:37.975Z,1416.00
2018-04-12T09:31:38.001Z,1420.00
2018-04-12T09:32:37.975Z,1408.00
2018-04-12T09:33:37.975Z,1408.00
2018-04-12T09:34:37.985Z,1428.00
2018-04-12T09:35:37.975Z,1376.00
2018-04-12T09:36:37.977Z,1392.00
2018-04-12T09:37:37.978Z,1388.00
2018-04-12T09:38:37.982Z,1368.00
2018-04-12T09:39:37.995Z,1372.00
2018-04-12T09:40:37.986Z,1372.00
2018-04-12T09:41:37.998Z,1360.00
2018-04-12T09:42:38.004Z,1352.00
2018-04-12T09:43:37.992Z,1348.00
2018-04-12T09:44:37.998Z,1324.00
2018-04-12T09:45:37.987Z,1312.00
2018-04-12T09:46:37.986Z,1288.00
2018-04-12T09:47:37.994Z,1260.00
2018-04-12T09:48:37.999Z,1236.00
2018-04-12T09:49:37.987Z,1208.00
2018-04-12T09:50:38.007Z,1168.00
2018-04-12T09:51:38.005Z,1128.00
2018-04-12T09:52:38.003Z,1104.00
2018-04-12T09:53:37.996Z,1068.00
2018-04-12T09:54:38.006Z,1028.00
2018-04-12T09:55:37.991Z,988.00
2018-04-12T09:56:38.001Z,960.00
2018-04-12T09:57:38.001Z,944.00
2018-04-12T09:58:38.016Z,928.00
2018-04-12T09:59:38.018Z,896.00
2018-04-12T10:00:38.032Z,892.00
2018-04-12T10:01:38.036Z,888.00
2018-04-12T10:02:38.007Z,896.00
2018-04-12T10:03:38.004Z,896.00
2018-04-12T10:04:38.068Z,900.00
2018-04-12T10:05:38.001Z,924.00
2018-04-12T10:06:37.999Z,932.00
2018-04-12T10:07:38.021Z,976.00
2018-04-12T10:08:38.013Z,1028.00
2018-04-12T10:09:38.008Z,1064.00
2018-04-12T10:10:38.006Z,1116.00
2018-04-12T10:11:38.017Z,1180.00
2018-04-12T10:12:38.004Z,1244.00
2018-04-12T10:13:38.041Z,1340.00
2018-04-12T10:14:38.005Z,1480.00
2018-04-12T10:15:38.015Z,1612.00
2018-04-12T10:16:38.033Z,1728.00
2018-04-12T10:17:38.008Z,1852.00
2018-04-12T10:18:38.004Z,2028.00
2018-04-12T10:19:38.009Z,2184.00
2018-04-12T10:20:38.004Z,2300.00
2018-04-12T10:21:38.043Z,2380.00
2018-04-12T10:22:38.019Z,2504.00
2018-04-12T10:23:38.008Z,2596.00
2018-04-12T10:24:38.008Z,2568.00
2018-04-12T10:25:38.028Z,2516.00
2018-04-12T10:26:38.011Z,2472.00
2018-04-12T10:27:38.006Z,2444.00
2018-04-12T10:28:38.007Z,2324.00
2018-04-12T10:29:38.016Z,2268.00
2018-04-12T10:30:38.009Z,2248.00
2018-04-12T10:31:38.015Z,2264.00
2018-04-12T10:32:38.012Z,2244.00
2018-04-12T10:33:38.008Z,2236.00
2018-04-12T10:34:38.022Z,2304.00
2018-04-12T10:35:38.036Z,2304.00
2018-04-12T10:36:38.013Z,2280.00
2018-04-12T10:37:38.018Z,2332.00
2018-04-12T10:38:38.020Z,2356.00
2018-04-12T10:39:38.042Z,2332.00
2018-04-12T10:40:38.051Z,2308.00
2018-04-12T10:41:38.078Z,2364.00
2018-04-12T10:42:38.030Z,2348.00
2018-04-12T10:43:38.023Z,2312.00
2018-04-12T10:44:38.023Z,2272.00
2018-04-12T10:45:38.021Z,2380.00
2018-04-12T10:46:38.034Z,2392.00
2018-04-12T10:47:38.040Z,2252.00
2018-04-12T10:48:38.028Z,2352.00
2018-04-12T10:49:38.044Z,2480.00
2018-04-12T10:50:38.084Z,2608.00
2018-04-12T10:51:38.040Z,2740.00
2018-04-12T10:52:38.047Z,2776.00
2018-04-12T10:53:38.031Z,2704.00
2018-04-12T10:54:38.032Z,2452.00
2018-04-12T10:55:38.032Z,2288.00
2018-04-12T10:56:38.029Z,2264.00
2018-04-12T10:57:38.062Z,2312.00
2018-04-12T10:58:38.041Z,2148.00
2018-04-12T10:59:38.055Z,2252.00
2018-04-12T11:00:38.037Z,2296.00
2018-04-12T11:01:38.073Z,2296.00
2018-04-12T11:02:38.035Z,2340.00
2018-04-12T11:03:38.037Z,2272.00
2018-04-12T11:04:38.040Z,2192.00
2018-04-12T11:05:38.067Z,2056.00
2018-04-12T11:06:38.044Z,1828.00
2018-04-12T11:07:38.048Z,1640.00
2018-04-12T11:08:38.048Z,1784.00
2018-04-12T11:09:38.049Z,1688.00
2018-04-12T11:10:38.053Z,1644.00
2018-04-12T11:11:38.067Z,1476.00
2018-04-12T11:12:38.050Z,1448.00
2018-04-12T11:13:38.053Z,1452.00
2018-04-12T11:14:38.064Z,1516.00
2018-04-12T11:15:38.050Z,1524.00
2018-04-12T11:16:38.057Z,1336.00
2018-04-12T11:17:38.062Z,1336.00
2018-04-12T11:18:38.066Z,1352.00
2018-04-12T11:19:38.076Z,1456.00
2018-04-12T11:20:38.069Z,1536.00
2018-04-12T11:21:38.090Z,1556.00
2018-04-12T11:22:38.090Z,1536.00
2018-04-12T11:23:38.133Z,1492.00
2018-04-12T11:24:38.062Z,1496.00
2018-04-12T11:25:38.107Z,1476.00
2018-04-12T11:26:38.064Z,1524.00
2018-04-12T11:27:38.086Z,1500.00
2018-04-12T11:28:38.095Z,1452.00
2018-04-12T11:29:38.067Z,1280.00
2018-04-12T11:30:38.083Z,1224.00
2018-04-12T11:31:38.067Z,1348.00
2018-04-12T11:32:38.118Z,1264.00
2018-04-12T11:33:38.070Z,1280.00
2018-04-12T11:34:38.094Z,1332.00
2018-04-12T11:35:38.086Z,1304.00
2018-04-12T11:36:38.079Z,1224.00
2018-04-12T11:37:38.084Z,1336.00
2018-04-12T11:38:38.098Z,1368.00
2018-04-12T11:39:38.095Z,1304.00
2018-04-12T11:40:38.120Z,1348.00
2018-04-12T11:41:38.076Z,1432.00
2018-04-12T11:42:38.122Z,1528.00
2018-04-12T11:43:38.407Z,1564.00
2018-04-12T11:44:38.080Z,1592.00
2018-04-12T11:45:38.088Z,1612.00
2018-04-12T11:46:38.116Z,1604.00
2018-04-12T11:47:38.087Z,1628.00
2018-04-12T11:48:38.109Z,1640.00
2018-04-12T11:49:38.141Z,1588.00
2018-04-12T11:50:38.095Z,1704.00
2018-04-12T11:51:38.102Z,1736.00
2018-04-12T11:52:38.243Z,1652.00
2018-04-12T11:53:38.098Z,1776.00
2018-04-12T11:54:38.093Z,1704.00
2018-04-12T11:55:38.296Z,1820.00
2018-04-12T11:56:38.103Z,1856.00
2018-04-12T11:57:38.120Z,1908.00
2018-04-12T11:58:38.115Z,1964.00
2018-04-12T11:59:38.101Z,2048.00
2018-04-12T12:00:38.102Z,2076.00
2018-04-12T12:01:38.104Z,1992.00
2018-04-12T12:02:38.103Z,2104.00
2018-04-12T12:03:38.106Z,2136.00
2018-04-12T12:04:38.499Z,2180.00
2018-04-12T12:05:38.137Z,2204.00
2018-04-12T12:06:38.129Z,2076.00
2018-04-12T12:07:38.139Z,2112.00
2018-04-12T12:08:38.141Z,2112.00
2018-04-12T12:09:38.145Z,2132.00
2018-04-12T12:10:38.141Z,2296.00
2018-04-12T12:11:38.164Z,2188.00
2018-04-12T12:12:38.129Z,2196.00
2018-04-12T12:13:38.153Z,2204.00
2018-04-12T12:14:38.168Z,2308.00
2018-04-12T12:15:38.164Z,2268.00
2018-04-12T12:16:38.181Z,2200.00
2018-04-12T12:17:38.256Z,2120.00
2018-04-12T12:18:38.220Z,2168.00
2018-04-12T12:19:38.173Z,2196.00
2018-04-12T12:20:38.142Z,2180.00
2018-04-12T12:21:38.175Z,2188.00
2018-04-12T12:22:38.201Z,2152.00
2018-04-12T12:23:38.266Z,2148.00
2018-04-12T12:24:38.150Z,2184.00
2018-04-12T12:25:38.157Z,2152.00
2018-04-12T12:26:38.159Z,2192.00
2018-04-12T12:27:38.165Z,2276.00
2018-04-12T12:28:38.170Z,2244.00
2018-04-12T12:29:38.171Z,2280.00
2018-04-12T12:30:38.171Z,2320.00
2018-04-12T12:31:38.175Z,2320.00
2018-04-12T12:32:38.173Z,2280.00
2018-04-12T12:33:38.200Z,2284.00
2018-04-12T12:34:38.178Z,2244.00
2018-04-12T12:35:38.195Z,2220.00
2018-04-12T12:36:38.187Z,2188.00
2018-04-12T12:37:38.199Z,2172.00
2018-04-12T12:38:38.200Z,2108.00
2018-04-12T12:39:38.198Z,2112.00
2018-04-12T12:40:38.204Z,2100.00
2018-04-12T12:41:38.220Z,2080.00
2018-04-12T12:42:38.204Z,2076.00
2018-04-12T12:43:38.211Z,2124.00
2018-04-12T12:44:38.240Z,2148.00
2018-04-12T12:45:38.221Z,2176.00
2018-04-12T12:46:38.232Z,2204.00
2018-04-12T12:47:38.212Z,2236.00
2018-04-12T12:48:38.219Z,2184.00
2018-04-12T12:49:38.219Z,2188.00
2018-04-12T12:50:38.221Z,2216.00
2018-04-12T12:51:38.232Z,2192.00
2018-04-12T12:52:38.230Z,2204.00
2018-04-12T12:53:38.230Z,2164.00
2018-04-12T12:54:38.246Z,2056.00
2018-04-12T12:55:38.240Z,1864.00
2018-04-12T12:56:38.273Z,1880.00
2018-04-12T12:57:38.256Z,1880.00
2018-04-12T12:58:38.261Z,1916.00
2018-04-12T12:59:38.257Z,1944.00
2018-04-12T13:00:38.269Z,1976.00
2018-04-12T13:01:38.262Z,2012.00
2018-04-12T13:02:38.273Z,2048.00
2018-04-12T13:03:38.433Z,2056.00
2018-04-12T13:04:38.278Z,2104.00
2018-04-12T13:05:38.310Z,2104.00
2018-04-12T13:06:38.283Z,2104.00
2018-04-12T13:07:38.281Z,2144.00
2018-04-12T13:08:38.310Z,2148.00
2018-04-12T13:09:38.307Z,2152.00
2018-04-12T13:10:38.323Z,2224.00
2018-04-12T13:11:38.306Z,2256.00
2018-04-12T13:12:38.328Z,2292.00
2018-04-12T13:13:38.331Z,2260.00
2018-04-12T13:14:38.308Z,2196.00
2018-04-12T13:15:38.316Z,2132.00
2018-04-12T13:16:38.308Z,2060.00
2018-04-12T13:17:38.315Z,2000.00
2018-04-12T13:18:38.321Z,1936.00
2018-04-12T13:19:38.333Z,1880.00
2018-04-12T13:20:38.322Z,1832.00
2018-04-12T13:21:38.371Z,1852.00
2018-04-12T13:22:38.339Z,1852.00
2018-04-12T13:23:38.345Z,1868.00
2018-04-12T13:24:38.373Z,1868.00
2018-04-12T13:25:38.340Z,1828.00
2018-04-12T13:26:38.346Z,1820.00
2018-04-12T13:27:38.353Z,1832.00
2018-04-12T13:28:38.366Z,1840.00
2018-04-12T13:29:38.355Z,1804.00
2018-04-12T13:30:38.405Z,1800.00